Time;durP1;ratioP1;P1;durP2;ratioP2;P2;SDS_P1;SDS_P2;PMS_P1;PMS_P2;Temp;Humidity;BMP_temperature;BMP_pressure;BME280_temperature;BME280_humidity;BME280_pressure;Samples;Min_cycle;Max_cycle;Signal;HPM_P1;HPM_P2
2021/09/25 06:17:09;;;;;;;10.07;8.33;;;;;;;;;;4894412;29;20480;-86
2021/09/25 06:19:38;;;;;;;12.37;9.30;;;;;;;;;;4887662;29;21017;-86
2021/09/25 06:22:06;;;;;;;19.40;9.53;;;;;;;;;;4891044;29;20489;-86
2021/09/25 06:24:35;;;;;;;11.30;8.60;;;;;;;;;;4903465;29;20484;-86
2021/09/25 06:27:03;;;;;;;12.60;9.27;;;;;;;;;;4894106;29;20464;-86
2021/09/25 06:29:34;;;;;;;14.57;9.43;;;;;;;;;;4895837;29;20481;-90
2021/09/25 06:32:02;;;;;;;12.67;9.10;;;;;;;;;;4894096;29;20481;-88
2021/09/25 06:34:32;;;;;;;11.07;8.97;;;;;;;;;;4902729;29;20584;-86
2021/09/25 06:37:00;;;;;;;10.40;8.40;;;;;;;;;;4908480;29;20478;-87
2021/09/25 06:39:28;;;;;;;11.30;9.30;;;;;;;;;;4900037;29;20838;-88
2021/09/25 06:41:57;;;;;;;12.70;9.80;;;;;;;;;;4895480;29;20485;-89
2021/09/25 06:44:25;;;;;;;11.70;8.50;;;;;;;;;;4893248;29;20541;-89
2021/09/25 06:46:54;;;;;;;12.33;10.00;;;;;;;;;;4887395;29;20478;-88
2021/09/25 06:49:23;;;;;;;9.97;8.10;;;;;;;;;;4895098;29;20489;-89
2021/09/25 06:51:53;;;;;;;14.07;8.93;;;;;;;;;;4892646;29;20481;-88
2021/09/25 06:54:22;;;;;;;12.20;8.93;;;;;;;;;;4891135;29;20485;-89
2021/09/25 06:56:53;;;;;;;9.30;7.30;;;;;;;;;;4895308;29;20495;-89
2021/09/25 06:59:21;;;;;;;11.70;7.90;;;;;;;;;;4874399;29;20983;-88
2021/09/25 07:01:49;;;;;;;12.63;9.90;;;;;;;;;;4855739;29;20490;-89
2021/09/25 07:04:24;;;;;;;17.07;10.63;;;;;;;;;;4888741;29;20497;-89
2021/09/25 07:06:53;;;;;;;12.80;9.83;;;;;;;;;;4907560;29;20473;-89
2021/09/25 07:09:22;;;;;;;12.20;8.30;;;;;;;;;;4903038;29;21970;-89
2021/09/25 07:11:50;;;;;;;11.10;9.50;;;;;;;;;;4886398;29;20485;-89
2021/09/25 07:14:19;;;;;;;12.30;9.60;;;;;;;;;;4875103;29;20485;-90
2021/09/25 07:16:47;;;;;;;11.43;10.23;;;;;;;;;;4886356;29;20601;-89
2021/09/25 07:19:15;;;;;;;13.77;9.97;;;;;;;;;;4891194;29;20486;-89
2021/09/25 07:21:44;;;;;;;12.20;9.13;;;;;;;;;;4874557;29;20865;-89
2021/09/25 07:24:13;;;;;;;12.00;8.60;;;;;;;;;;4894373;29;20474;-89
2021/09/25 07:26:41;;;;;;;14.60;10.27;;;;;;;;;;4864524;29;20862;-89
2021/09/25 07:29:10;;;;;;;12.43;10.13;;;;;;;;;;4893888;29;20560;-89
2021/09/25 07:31:38;;;;;;;9.87;8.83;;;;;;;;;;4888530;29;20489;-89
2021/09/25 07:34:06;;;;;;;16.23;9.57;;;;;;;;;;4870444;29;20473;-88
2021/09/25 07:36:35;;;;;;;12.50;8.63;;;;;;;;;;4898008;29;20488;-88
2021/09/25 07:39:03;;;;;;;12.37;9.07;;;;;;;;;;4904228;29;20497;-88
2021/09/25 07:41:37;;;;;;;11.60;9.67;;;;;;;;;;4908275;29;20981;-88
2021/09/25 07:44:06;;;;;;;12.67;9.90;;;;;;;;;;4869130;29;20477;-88
2021/09/25 07:46:35;;;;;;;16.00;10.50;;;;;;;;;;4885991;29;20569;-88
2021/09/25 07:49:05;;;;;;;12.67;9.30;;;;;;;;;;4881331;29;21032;-88
2021/09/25 07:51:33;;;;;;;11.60;8.90;;;;;;;;;;4905572;29;20484;-88
2021/09/25 07:54:02;;;;;;;11.63;9.57;;;;;;;;;;4897944;29;20582;-86
2021/09/25 07:56:30;;;;;;;10.73;8.20;;;;;;;;;;4875935;29;20491;-86
2021/09/25 07:59:00;;;;;;;13.13;9.50;;;;;;;;;;4884828;29;20490;-86
2021/09/25 08:01:28;;;;;;;12.63;8.90;;;;;;;;;;4879473;29;20469;-89
2021/09/25 08:04:00;;;;;;;11.23;9.00;;;;;;;;;;4870989;29;21100;-89
2021/09/25 08:06:28;;;;;;;12.40;9.30;;;;;;;;;;4881249;29;20478;-89
2021/09/25 08:08:57;;;;;;;9.10;7.93;;;;;;;;;;4880296;29;21183;-89
2021/09/25 08:11:27;;;;;;;9.10;8.10;;;;;;;;;;4882858;29;20479;-89
2021/09/25 08:13:55;;;;;;;9.53;8.13;;;;;;;;;;4886757;29;20490;-89
2021/09/25 08:16:25;;;;;;;12.93;9.33;;;;;;;;;;4890362;29;20484;-88
2021/09/25 08:18:56;;;;;;;13.77;9.47;;;;;;;;;;4900875;29;20474;-89
2021/09/25 08:21:25;;;;;;;12.30;9.93;;;;;;;;;;4905936;29;20613;-88
2021/09/25 08:23:53;;;;;;;11.73;8.40;;;;;;;;;;4907415;29;20563;-89
2021/09/25 08:26:22;;;;;;;11.67;9.13;;;;;;;;;;4892083;29;20837;-88
2021/09/25 08:28:50;;;;;;;11.20;8.30;;;;;;;;;;4889563;29;20497;-88
2021/09/25 08:31:18;;;;;;;9.53;7.40;;;;;;;;;;4878197;29;20476;-88
2021/09/25 08:33:48;;;;;;;11.30;7.70;;;;;;;;;;4895258;29;20542;-88
2021/09/25 08:36:16;;;;;;;9.27;7.43;;;;;;;;;;4884885;29;20490;-87
2021/09/25 08:39:05;;;;;;;8.30;7.00;;;;;;;;;;4887295;29;20479;-88
2021/09/25 08:41:33;;;;;;;8.00;6.60;;;;;;;;;;4870968;29;20582;-88
2021/09/25 08:44:02;;;;;;;11.63;8.03;;;;;;;;;;4883112;29;20505;-88
2021/09/25 08:46:30;;;;;;;8.40;7.37;;;;;;;;;;4849703;29;20494;-88
2021/09/25 08:49:00;;;;;;;6.60;5.90;;;;;;;;;;4891108;29;20481;-88
2021/09/25 08:51:29;;;;;;;7.97;7.13;;;;;;;;;;4907693;29;20479;-88
2021/09/25 08:53:57;;;;;;;10.10;6.50;;;;;;;;;;4910044;29;20483;-88
2021/09/25 08:56:27;;;;;;;9.27;8.30;;;;;;;;;;4885818;29;20488;-85
2021/09/25 08:58:57;;;;;;;9.53;7.73;;;;;;;;;;4877218;29;20504;-90
2021/09/25 09:01:28;;;;;;;10.40;7.40;;;;;;;;;;4866041;29;20487;-89
2021/09/25 09:03:57;;;;;;;8.47;6.43;;;;;;;;;;4897847;29;20488;-88
2021/09/25 09:06:28;;;;;;;10.10;6.60;;;;;;;;;;4900376;29;20524;-88
2021/09/25 09:09:00;;;;;;;7.20;5.47;;;;;;;;;;4873378;29;20489;-89
2021/09/25 09:11:28;;;;;;;5.80;4.90;;;;;;;;;;4885143;29;20864;-88
2021/09/25 09:13:58;;;;;;;5.63;4.80;;;;;;;;;;4890274;29;20533;-89
2021/09/25 09:16:29;;;;;;;7.93;6.40;;;;;;;;;;4872766;29;20485;-88
2021/09/25 09:18:59;;;;;;;6.10;5.10;;;;;;;;;;4898884;29;20498;-88
2021/09/25 09:21:29;;;;;;;6.63;5.37;;;;;;;;;;4903920;29;20478;-88
2021/09/25 09:24:04;;;;;;;8.03;6.57;;;;;;;;;;4910042;29;21083;-88
2021/09/25 09:26:34;;;;;;;9.23;7.80;;;;;;;;;;4906393;29;20482;-88
2021/09/25 09:29:04;;;;;;;12.20;7.43;;;;;;;;;;4888930;29;20493;-88
2021/09/25 09:31:32;;;;;;;9.00;7.40;;;;;;;;;;4881208;29;20495;-87
2021/09/25 09:34:01;;;;;;;14.13;9.43;;;;;;;;;;4886705;29;20478;-87
2021/09/25 09:36:34;;;;;;;13.93;8.40;;;;;;;;;;4914396;29;20482;-88
2021/09/25 09:39:06;;;;;;;9.10;7.43;;;;;;;;;;4895373;29;20469;-87
2021/09/25 09:41:37;;;;;;;12.57;9.07;;;;;;;;;;4877293;29;20532;-88
2021/09/25 09:44:07;;;;;;;10.77;9.00;;;;;;;;;;4890219;29;20492;-88
2021/09/25 09:46:37;;;;;;;10.67;7.53;;;;;;;;;;4881247;29;20478;-88
2021/09/25 09:49:06;;;;;;;11.27;7.80;;;;;;;;;;4871111;29;20493;-89
2021/09/25 09:51:37;;;;;;;9.60;6.93;;;;;;;;;;4872863;29;20482;-88
2021/09/25 09:54:10;;;;;;;12.37;7.83;;;;;;;;;;4872607;29;20486;-89
2021/09/25 09:56:40;;;;;;;8.70;7.33;;;;;;;;;;4873968;29;20485;-88
2021/09/25 09:59:10;;;;;;;9.37;7.63;;;;;;;;;;4887971;29;20466;-88
2021/09/25 10:01:39;;;;;;;7.67;6.90;;;;;;;;;;4860983;29;20486;-89
2021/09/25 10:04:08;;;;;;;11.50;7.03;;;;;;;;;;4890579;29;20841;-88
2021/09/25 10:06:38;;;;;;;10.30;8.70;;;;;;;;;;4906691;29;20474;-89
2021/09/25 10:09:08;;;;;;;9.70;7.83;;;;;;;;;;4907022;29;20492;-89
2021/09/25 10:11:37;;;;;;;14.63;9.40;;;;;;;;;;4872141;29;20493;-89
2021/09/25 10:14:06;;;;;;;11.10;8.83;;;;;;;;;;4871010;29;20504;-90
2021/09/25 10:16:36;;;;;;;11.87;8.00;;;;;;;;;;4875343;29;20589;-89
2021/09/25 10:19:05;;;;;;;12.37;7.60;;;;;;;;;;4886475;29;20529;-88
2021/09/25 10:21:34;;;;;;;11.60;7.60;;;;;;;;;;4873103;29;21138;-88
2021/09/25 10:24:07;;;;;;;9.67;6.43;;;;;;;;;;4886298;29;20481;-89
2021/09/25 10:26:36;;;;;;;13.17;8.20;;;;;;;;;;4874550;29;20490;-87
2021/09/25 10:29:05;;;;;;;12.40;8.80;;;;;;;;;;4889630;29;21034;-88
2021/09/25 10:31:34;;;;;;;10.40;7.80;;;;;;;;;;4876695;29;20477;-87
2021/09/25 10:34:13;;;;;;;10.07;7.63;;;;;;;;;;4886934;29;20470;-87
2021/09/25 10:36:42;;;;;;;7.23;6.10;;;;;;;;;;4906101;29;20500;-87
2021/09/25 10:39:34;;;;;;;7.80;5.87;;;;;;;;;;4907787;29;20493;-87
2021/09/25 10:42:12;;;;;;;10.30;6.87;;;;;;;;;;4887778;29;20969;-89
2021/09/25 10:44:44;;;;;;;10.33;6.23;;;;;;;;;;4873180;29;20571;-87
2021/09/25 10:47:15;;;;;;;8.50;6.10;;;;;;;;;;4884915;29;20477;-88
2021/09/25 10:49:44;;;;;;;7.17;4.77;;;;;;;;;;4874006;29;20474;-86
2021/09/25 10:52:13;;;;;;;6.60;5.13;;;;;;;;;;4890824;29;20482;-89
2021/09/25 10:54:41;;;;;;;7.93;5.27;;;;;;;;;;4888093;29;20466;-87
2021/09/25 10:57:16;;;;;;;6.57;5.70;;;;;;;;;;4875664;29;21040;-88
2021/09/25 11:00:04;;;;;;;6.53;5.43;;;;;;;;;;4876974;29;20494;-87
2021/09/25 11:02:42;;;;;;;9.57;5.20;;;;;;;;;;4825266;29;20491;-87
2021/09/25 11:05:15;;;;;;;6.17;5.57;;;;;;;;;;4903223;29;20567;-88
2021/09/25 11:07:43;;;;;;;6.10;5.50;;;;;;;;;;4907129;29;20486;-88
2021/09/25 11:10:12;;;;;;;6.93;5.97;;;;;;;;;;4904044;29;20478;-87
2021/09/25 11:12:48;;;;;;;7.63;5.10;;;;;;;;;;4905339;29;20501;-88
2021/09/25 11:15:33;;;;;;;7.00;5.90;;;;;;;;;;4876872;29;20568;-88
2021/09/25 11:18:20;;;;;;;8.80;5.00;;;;;;;;;;4880122;29;20569;-89
2021/09/25 11:20:49;;;;;;;6.97;5.47;;;;;;;;;;4888136;29;20478;-88
2021/09/25 11:23:17;;;;;;;6.67;4.67;;;;;;;;;;4910289;29;20481;-88
2021/09/25 11:25:50;;;;;;;7.13;5.13;;;;;;;;;;4912603;29;20851;-87
2021/09/25 11:28:24;;;;;;;6.90;4.97;;;;;;;;;;4905590;29;20477;-88
2021/09/25 11:30:52;;;;;;;7.13;4.73;;;;;;;;;;4906660;29;20476;-90
2021/09/25 11:33:33;;;;;;;5.33;4.80;;;;;;;;;;4901004;29;20470;-89
2021/09/25 11:36:07;;;;;;;5.23;4.73;;;;;;;;;;4886837;29;21024;-89
2021/09/25 11:38:44;;;;;;;8.73;4.53;;;;;;;;;;4877455;29;20546;-88
2021/09/25 11:41:15;;;;;;;7.93;4.73;;;;;;;;;;4877716;29;20462;-89
2021/09/25 11:43:55;;;;;;;4.37;3.97;;;;;;;;;;4868365;29;20482;-89
2021/09/25 11:46:24;;;;;;;6.57;4.73;;;;;;;;;;4878098;29;20928;-89
2021/09/25 11:48:57;;;;;;;5.63;4.30;;;;;;;;;;4886494;29;20481;-89
2021/09/25 11:51:25;;;;;;;7.30;4.73;;;;;;;;;;4910203;29;20949;-89
2021/09/25 11:53:57;;;;;;;5.40;3.93;;;;;;;;;;4913698;29;20478;-89
2021/09/25 11:56:28;;;;;;;4.73;4.00;;;;;;;;;;4898060;29;20489;-88
2021/09/25 11:59:00;;;;;;;5.10;4.60;;;;;;;;;;4879631;29;20469;-89
2021/09/25 12:01:36;;;;;;;5.57;4.93;;;;;;;;;;4891511;29;20482;-89
2021/09/25 12:04:05;;;;;;;4.83;4.43;;;;;;;;;;4892505;29;21039;-91
2021/09/25 12:06:33;;;;;;;4.20;3.87;;;;;;;;;;4895307;29;20474;-90
2021/09/25 12:09:02;;;;;;;5.97;3.70;;;;;;;;;;4891355;29;20494;-90
2021/09/25 12:11:30;;;;;;;4.73;3.93;;;;;;;;;;4878930;29;20477;-89
2021/09/25 12:13:58;;;;;;;6.63;4.40;;;;;;;;;;4887143;29;20470;-88
2021/09/25 12:16:28;;;;;;;4.40;4.10;;;;;;;;;;4899551;29;20601;-89
2021/09/25 12:18:56;;;;;;;4.37;4.07;;;;;;;;;;4868411;29;21032;-88
2021/09/25 12:21:26;;;;;;;4.40;3.97;;;;;;;;;;4905109;29;20473;-89
2021/09/25 12:23:57;;;;;;;7.30;4.40;;;;;;;;;;4914248;29;20486;-88
2021/09/25 12:26:27;;;;;;;9.37;4.77;;;;;;;;;;4910213;29;20484;-88
2021/09/25 12:28:56;;;;;;;4.87;4.40;;;;;;;;;;4890888;29;20870;-88
2021/09/25 12:31:27;;;;;;;4.83;3.90;;;;;;;;;;4889401;29;20964;-88
2021/09/25 12:33:58;;;;;;;4.90;4.40;;;;;;;;;;4880868;29;21045;-88
2021/09/25 12:36:28;;;;;;;4.30;4.00;;;;;;;;;;4913277;29;20481;-89
2021/09/25 12:39:03;;;;;;;4.87;4.07;;;;;;;;;;4873782;29;20489;-88
2021/09/25 12:41:32;;;;;;;3.53;3.23;;;;;;;;;;4880737;29;21368;-88
2021/09/25 12:44:01;;;;;;;6.13;4.87;;;;;;;;;;4877517;29;20575;-88
2021/09/25 12:46:30;;;;;;;4.10;3.80;;;;;;;;;;4882693;29;21185;-88
2021/09/25 12:49:04;;;;;;;5.03;4.53;;;;;;;;;;4893983;29;20496;-88
2021/09/25 12:51:34;;;;;;;4.03;3.57;;;;;;;;;;4909884;29;20478;-88
2021/09/25 12:54:05;;;;;;;4.00;3.60;;;;;;;;;;4912548;29;20474;-88
2021/09/25 12:56:45;;;;;;;4.10;3.50;;;;;;;;;;4915555;29;20547;-87
2021/09/25 12:59:14;;;;;;;5.03;4.50;;;;;;;;;;4891405;29;20580;-88
2021/09/25 13:01:44;;;;;;;4.37;4.00;;;;;;;;;;4870464;29;21039;-87
2021/09/25 13:04:18;;;;;;;3.77;3.40;;;;;;;;;;4881126;29;21119;-88
2021/09/25 13:06:47;;;;;;;3.87;3.57;;;;;;;;;;4913708;29;20477;-87
2021/09/25 13:09:16;;;;;;;5.47;4.20;;;;;;;;;;4903183;29;20490;-88
2021/09/25 13:12:11;;;;;;;3.70;3.40;;;;;;;;;;4880452;29;20482;-88
2021/09/25 13:14:40;;;;;;;4.17;3.87;;;;;;;;;;4820810;29;20873;-87
2021/09/25 13:17:08;;;;;;;4.13;3.63;;;;;;;;;;4887332;29;20481;-87
2021/09/25 13:19:38;;;;;;;4.20;3.20;;;;;;;;;;4883134;29;20480;-87
2021/09/25 13:22:07;;;;;;;4.57;3.40;;;;;;;;;;4880162;29;20973;-87
2021/09/25 13:24:36;;;;;;;3.37;3.00;;;;;;;;;;4885895;29;21024;-87
2021/09/25 13:27:04;;;;;;;3.80;3.50;;;;;;;;;;4887558;29;20601;-88
2021/09/25 13:29:32;;;;;;;4.87;4.13;;;;;;;;;;4870565;29;20491;-88
2021/09/25 13:32:01;;;;;;;4.00;3.57;;;25.20;78.20;;;;;;4884379;29;20506;-87
2021/09/25 13:34:29;;;;;;;4.07;3.77;;;24.90;79.60;;;;;;4886818;29;20557;-87
2021/09/25 13:36:59;;;;;;;4.60;3.90;;;24.80;81.10;;;;;;4908837;29;20994;-87
2021/09/25 13:39:28;;;;;;;4.27;3.70;;;24.60;81.40;;;;;;4907086;29;20855;-87
2021/09/25 13:41:56;;;;;;;7.97;4.40;;;24.60;80.20;;;;;;4867318;29;20486;-87
2021/09/25 13:44:24;;;;;;;4.67;4.27;;;24.40;80.80;;;;;;4876287;29;20477;-88
2021/09/25 13:46:52;;;;;;;3.90;3.60;;;24.40;80.80;;;;;;4859024;29;20458;-87
2021/09/25 13:49:21;;;;;;;3.83;3.40;;;;;;;;;;4876678;29;20630;-87
2021/09/25 13:51:49;;;;;;;3.90;3.60;;;24.30;80.90;;;;;;4871028;29;20481;-87
2021/09/25 13:54:18;;;;;;;3.27;3.07;;;24.30;80.90;;;;;;4878344;29;21259;-87
2021/09/25 13:56:46;;;;;;;10.00;3.80;;;24.20;81.40;;;;;;4878466;29;21016;-87
2021/09/25 13:59:14;;;;;;;5.60;3.70;;;24.30;81.40;;;;;;4887695;29;20486;-87
2021/09/25 14:01:42;;;;;;;3.67;3.37;;;24.10;81.90;;;;;;4888748;29;21022;-87
2021/09/25 14:04:11;;;;;;;3.77;3.20;;;24.10;81.90;;;;;;4892455;29;20508;-87
2021/09/25 14:06:39;;;;;;;3.80;3.50;;;24.00;81.10;;;;;;4910049;29;20473;-87
2021/09/25 14:09:07;;;;;;;3.57;3.30;;;;;;;;;;4908253;29;20568;-87
2021/09/25 14:11:37;;;;;;;3.40;3.17;;;24.00;80.20;;;;;;4902546;29;20584;-87
2021/09/25 14:14:05;;;;;;;3.73;3.43;;;23.90;78.70;;;;;;4879970;29;20482;-87
2021/09/25 14:16:33;;;;;;;4.20;2.77;;;23.90;80.10;;;;;;4878759;29;20673;-87
2021/09/25 14:19:03;;;;;;;23.03;5.10;;;23.90;80.10;;;;;;4879005;29;20802;-87
2021/09/25 14:21:35;;;;;;;5.97;3.47;;;23.90;80.90;;;;;;4900990;29;20508;-87
2021/09/25 14:24:03;;;;;;;3.40;3.03;;;23.90;79.90;;;;;;4876365;29;20481;-87
2021/09/25 14:26:32;;;;;;;6.73;3.10;;;24.00;80.60;;;;;;4887311;29;20482;-86
2021/09/25 14:29:06;;;;;;;5.70;3.57;;;24.00;81.80;;;;;;4885257;29;20899;-85
2021/09/25 14:31:35;;;;;;;3.00;2.80;;;24.00;80.40;;;;;;4889407;29;20536;-86
2021/09/25 14:34:04;;;;;;;3.77;3.40;;;23.90;81.10;;;;;;4887645;29;20585;-86
2021/09/25 14:36:32;;;;;;;3.47;3.17;;;23.90;79.70;;;;;;4905658;29;20520;-86
2021/09/25 14:39:00;;;;;;;3.13;2.83;;;23.80;80.30;;;;;;4906841;29;20478;-87
2021/09/25 14:41:28;;;;;;;3.63;3.33;;;23.80;80.20;;;;;;4906617;29;21235;-87
2021/09/25 14:43:57;;;;;;;4.73;3.20;;;23.80;79.30;;;;;;4881361;29;20582;-86
2021/09/25 14:46:28;;;;;;;4.30;2.80;;;23.80;80.20;;;;;;4874951;29;20572;-86
2021/09/25 14:48:57;;;;;;;4.20;3.80;;;23.80;80.60;;;;;;4884503;29;20535;-87
2021/09/25 14:51:25;;;;;;;3.60;2.90;;;23.90;79.00;;;;;;4907753;29;20492;-89
2021/09/25 14:53:54;;;;;;;4.30;2.40;;;23.90;76.60;;;;;;4895729;29;20493;-87
2021/09/25 14:56:25;;;;;;;2.90;2.63;;;24.00;77.20;;;;;;4892205;29;20548;-87
2021/09/25 14:58:53;;;;;;;2.83;2.60;;;24.00;77.30;;;;;;4885968;29;20481;-88
2021/09/25 15:01:22;;;;;;;5.63;2.60;;;25.20;73.90;;;;;;4862053;29;20479;-87
2021/09/25 15:03:54;;;;;;;3.70;3.00;;;26.40;72.90;;;;;;4879468;29;21011;-89
2021/09/25 15:06:23;;;;;;;3.27;2.97;;;28.20;68.40;;;;;;4872799;29;20547;-88
2021/09/25 15:08:51;;;;;;;2.93;2.73;;;28.60;68.30;;;;;;4889942;29;20532;-88
2021/09/25 15:11:20;;;;;;;7.47;3.20;;;28.70;67.80;;;;;;4882662;29;20494;-88
2021/09/25 15:13:50;;;;;;;5.77;2.80;;;29.30;66.80;;;;;;4875965;29;20488;-88
2021/09/25 15:16:19;;;;;;;3.60;2.70;;;29.70;65.00;;;;;;4875603;29;20471;-89
2021/09/25 15:18:47;;;;;;;7.37;2.47;;;;;;;;;;4861559;29;20479;-88
2021/09/25 15:21:19;;;;;;;2.60;2.40;;;;;;;;;;4908818;29;20481;-88
2021/09/25 15:23:47;;;;;;;3.00;2.57;;;;;;;;;;4904540;29;20475;-88
2021/09/25 15:26:16;;;;;;;3.20;2.90;;;30.90;58.90;;;;;;4885017;29;20561;-88
2021/09/25 15:28:44;;;;;;;3.30;2.40;;;30.20;60.40;;;;;;4851872;29;20481;-88
2021/09/25 15:31:13;;;;;;;2.70;2.50;;;29.30;61.80;;;;;;4881454;29;21056;-87
2021/09/25 15:33:42;;;;;;;2.53;2.33;;;28.20;63.60;;;;;;4890563;29;20513;-89
2021/09/25 15:36:10;;;;;;;9.37;3.43;;;;;;;;;;4905451;29;20968;-87
2021/09/25 15:38:39;;;;;;;7.20;3.60;;;26.30;68.00;;;;;;4889499;29;20474;-87
2021/09/25 15:41:07;;;;;;;3.03;2.83;;;;;;;;;;4903521;29;21082;-87
2021/09/25 15:43:37;;;;;;;5.80;3.10;;;25.00;72.10;;;;;;4898276;29;20466;-87
2021/09/25 15:46:05;;;;;;;3.57;2.90;;;24.60;72.90;;;;;;4904835;29;20482;-87
2021/09/25 15:48:33;;;;;;;3.80;2.93;;;24.20;73.10;;;;;;4887462;29;20486;-87
2021/09/25 15:51:03;;;;;;;2.80;2.60;;;23.90;73.70;;;;;;4896329;29;20502;-87
2021/09/25 15:53:31;;;;;;;3.17;2.33;;;23.70;74.70;;;;;;4906442;29;20469;-87
2021/09/25 15:56:01;;;;;;;3.20;2.63;;;23.50;75.90;;;;;;4892202;29;20552;-87
2021/09/25 15:58:29;;;;;;;2.90;2.53;;;23.40;76.10;;;;;;4880588;29;20596;-87
2021/09/25 16:00:58;;;;;;;3.70;2.40;;;23.40;76.10;;;;;;4865955;29;20561;-86
2021/09/25 16:03:26;;;;;;;3.10;2.60;;;23.00;78.30;;;;;;4888115;29;20487;-87
2021/09/25 16:05:57;;;;;;;3.53;2.80;;;22.70;78.90;;;;;;4883075;29;21183;-87
2021/09/25 16:08:31;;;;;;;4.90;3.37;;;22.50;79.30;;;;;;4881588;29;20517;-87
2021/09/25 16:11:01;;;;;;;4.70;2.90;;;22.30;80.50;;;;;;4886911;29;21027;-87
2021/09/25 16:13:31;;;;;;;7.23;3.20;;;22.30;80.50;;;;;;4885110;29;20510;-87
2021/09/25 16:15:59;;;;;;;4.93;2.70;;;22.20;82.40;;;;;;4890999;29;20478;-86
2021/09/25 16:18:27;;;;;;;3.83;2.60;;;22.10;84.40;;;;;;4879113;29;20481;-87
2021/09/25 16:20:55;;;;;;;3.10;2.77;;;22.00;84.90;;;;;;4907700;29;20477;-87
2021/09/25 16:23:26;;;;;;;2.87;2.67;;;21.90;85.30;;;;;;4908876;29;20470;-86
2021/09/25 16:25:54;;;;;;;4.63;2.60;;;21.90;85.30;;;;;;4910132;29;20485;-86
2021/09/25 16:28:22;;;;;;;2.87;2.67;;;21.60;87.10;;;;;;4906134;29;20482;-86
2021/09/25 16:30:52;;;;;;;3.43;2.80;;;21.50;88.00;;;;;;4902118;29;21000;-87
2021/09/25 16:33:21;;;;;;;2.63;2.43;;;21.30;89.10;;;;;;4887307;29;20497;-87
2021/09/25 16:35:50;;;;;;;4.10;2.80;;;21.40;89.10;;;;;;4909829;29;20486;-87
2021/09/25 16:41:23;;;;;;;3.50;2.80;;;21.00;91.00;;;;;;4915904;29;20524;-88
2021/09/25 16:43:51;;;;;;;3.10;2.80;;;20.90;90.60;;;;;;4896987;29;20542;-88
2021/09/25 16:46:20;;;;;;;3.03;2.60;;;20.80;91.40;;;;;;4903624;29;20481;-88
2021/09/25 16:48:50;;;;;;;3.60;2.57;;;20.70;92.70;;;;;;4906705;29;20473;-89
2021/09/25 16:51:21;;;;;;;3.40;3.10;;;20.60;93.90;;;;;;4915748;29;20494;-88
2021/09/25 16:53:49;;;;;;;4.43;2.80;;;20.50;94.40;;;;;;4922736;29;20502;-88
2021/09/25 16:56:17;;;;;;;2.53;2.33;;;20.40;94.50;;;;;;4918639;29;20949;-88
2021/09/25 16:58:46;;;;;;;4.53;3.27;;;20.20;94.70;;;;;;4921181;29;20973;-88
2021/09/25 17:01:14;;;;;;;3.10;2.80;;;20.10;95.90;;;;;;4887493;29;20530;-88
2021/09/25 17:03:44;;;;;;;3.63;2.60;;;20.00;96.40;;;;;;4909736;29;20474;-88
2021/09/25 17:06:13;;;;;;;3.20;3.00;;;19.90;96.80;;;;;;4920769;29;20993;-89
2021/09/25 17:08:42;;;;;;;3.10;2.80;;;19.80;97.40;;;;;;4922371;29;20490;-88
2021/09/25 17:11:10;;;;;;;2.63;2.43;;;19.70;97.60;;;;;;4915114;29;20659;-88
2021/09/25 17:13:38;;;;;;;3.10;2.80;;;19.60;98.00;;;;;;4914738;29;21057;-88
2021/09/25 17:16:09;;;;;;;2.87;2.67;;;19.40;98.00;;;;;;4905050;29;20478;-88
2021/09/25 17:18:40;;;;;;;2.73;2.53;;;19.30;98.00;;;;;;4906326;29;20867;-87
2021/09/25 17:21:10;;;;;;;4.10;3.17;;;19.30;98.80;;;;;;4905342;29;20948;-87
2021/09/25 17:23:39;;;;;;;6.23;3.07;;;19.20;98.60;;;;;;4907860;29;20557;-88
2021/09/25 17:26:07;;;;;;;23.20;3.67;;;19.10;98.30;;;;;;4904423;29;20482;-87
2021/09/25 17:28:36;;;;;;;6.60;3.30;;;19.00;97.90;;;;;;4890736;29;20541;-87
2021/09/25 17:31:05;;;;;;;9.30;3.20;;;18.90;97.30;;;;;;4884150;29;20490;-87
2021/09/25 17:33:34;;;;;;;6.40;3.17;;;18.80;97.30;;;;;;4909747;29;20504;-88
2021/09/25 17:36:02;;;;;;;6.13;3.40;;;;;;;;;;4911695;29;20478;-89
2021/09/25 17:38:32;;;;;;;7.90;3.50;;;;;;;;;;4909379;29;20478;-88
2021/09/25 17:41:00;;;;;;;6.20;3.33;;;;;;;;;;4898564;29;20573;-87
2021/09/25 17:43:32;;;;;;;10.60;3.33;;;;;;;;;;4891907;29;20476;-90
2021/09/25 17:46:04;;;;;;;6.40;3.37;;;;;;;;;;4900942;29;20489;-89
2021/09/25 17:48:33;;;;;;;6.00;3.57;;;;;;;;;;4904113;29;20465;-90
2021/09/25 17:51:02;;;;;;;4.23;3.10;;;;;;;;;;4909762;29;20789;-90
2021/09/25 17:53:31;;;;;;;8.50;3.40;;;;;;;;;;4905796;29;21179;-89
2021/09/25 17:56:01;;;;;;;3.93;2.80;;;;;;;;;;4908423;29;20480;-90
2021/09/25 17:58:29;;;;;;;3.37;2.83;;;;;;;;;;4897913;29;20581;-90
2021/09/25 18:01:00;;;;;;;4.77;2.83;;;;;;;;;;4872343;29;20985;-91
2021/09/25 18:03:29;;;;;;;8.97;3.30;;;;;;;;;;4894012;29;20509;-91
2021/09/25 18:05:58;;;;;;;7.07;3.67;;;;;;;;;;4898271;29;20980;-91
2021/09/25 18:08:26;;;;;;;4.43;3.93;;;;;;;;;;4906190;29;21062;-90
2021/09/25 18:10:54;;;;;;;14.13;4.23;;;;;;;;;;4913123;29;20858;-89
2021/09/25 18:13:24;;;;;;;7.13;4.47;;;;;;;;;;4912382;29;21000;-89
2021/09/25 18:15:52;;;;;;;11.90;3.70;;;;;;;;;;4910576;29;20472;-89
2021/09/25 18:18:21;;;;;;;10.93;3.90;;;;;;;;;;4893493;29;20482;-90
2021/09/25 18:20:49;;;;;;;11.07;4.20;;;;;;;;;;4910404;29;21015;-89
2021/09/25 18:23:18;;;;;;;7.47;3.73;;;;;;;;;;4908746;29;20557;-88
2021/09/25 18:25:47;;;;;;;5.20;3.57;;;;;;;;;;4906945;29;20977;-89
2021/09/25 18:28:15;;;;;;;12.87;3.40;;;;;;;;;;4896904;29;20875;-89
2021/09/25 18:30:45;;;;;;;6.37;3.57;;;;;;;;;;4887660;29;20473;-91
2021/09/25 18:33:17;;;;;;;5.70;3.60;;;;;;;;;;4906368;29;20519;-90
2021/09/25 18:35:45;;;;;;;4.00;3.60;;;;;;;;;;4907273;29;20954;-90
2021/09/25 18:38:14;;;;;;;5.57;4.13;;;;;;;;;;4912662;29;20993;-89
2021/09/25 18:40:42;;;;;;;4.43;4.00;;;;;;;;;;4906557;29;20484;-89
2021/09/25 18:43:11;;;;;;;5.03;4.37;;;;;;;;;;4912807;29;20497;-90
2021/09/25 18:45:40;;;;;;;6.23;4.40;;;;;;;;;;4900533;29;20504;-91
2021/09/25 18:48:10;;;;;;;4.80;4.30;;;;;;;;;;4907214;29;20541;-90
2021/09/25 18:50:39;;;;;;;5.17;4.67;;;;;;;;;;4907768;29;20473;-90
2021/09/25 18:53:07;;;;;;;6.70;4.73;;;;;;;;;;4908162;29;20822;-90
2021/09/25 18:55:35;;;;;;;6.70;5.23;;;;;;;;;;4897762;29;20493;-90
2021/09/25 18:58:04;;;;;;;8.10;5.00;;;;;;;;;;4902358;29;20491;-90
2021/09/25 19:00:32;;;;;;;6.20;5.60;;;;;;;;;;4887281;29;20515;-91
2021/09/25 19:03:01;;;;;;;8.30;6.03;;;;;;;;;;4876603;29;20553;-90
2021/09/25 19:05:31;;;;;;;7.10;5.57;;;;;;;;;;4898270;29;20470;-90
2021/09/25 19:07:59;;;;;;;7.33;5.87;;;;;;;;;;4888776;29;20477;-90
2021/09/25 19:10:28;;;;;;;8.40;5.60;;;;;;;;;;4887207;29;20476;-90
2021/09/25 19:12:56;;;;;;;7.30;5.60;;;;;;;;;;4891006;29;20480;-89
2021/09/25 19:15:24;;;;;;;8.40;5.70;;;;;;;;;;4903295;29;20484;-87
2021/09/25 19:17:53;;;;;;;5.37;4.87;;;;;;;;;;4904715;29;20549;-90
2021/09/25 19:20:21;;;;;;;8.17;5.37;;;;;;;;;;4910510;29;20505;-90
2021/09/25 19:22:52;;;;;;;9.17;6.20;;;;;;;;;;4904861;29;20530;-88
2021/09/25 19:25:20;;;;;;;4.87;4.40;;;;;;;;;;4904773;29;20569;-90
2021/09/25 19:27:49;;;;;;;6.30;4.80;;;;;;;;;;4894457;29;20501;-92
2021/09/25 19:30:17;;;;;;;7.97;5.53;;;;;;;;;;4918835;28;20447;-88
2021/09/25 19:32:49;;;;;;;6.27;4.20;;;;;;;;;;4904824;29;20526;-86
2021/09/25 19:35:17;;;;;;;9.20;5.47;;;;;;;;;;4909424;29;20534;-86
2021/09/25 19:37:48;;;;;;;5.90;5.33;;;;;;;;;;4903922;29;20482;-86
2021/09/25 19:40:22;;;;;;;9.17;4.70;;;;;;;;;;4902236;29;20589;-86
2021/09/25 19:42:53;;;;;;;5.80;4.97;;;;;;;;;;4913252;29;20579;-86
2021/09/25 19:45:22;;;;;;;5.10;4.60;;;;;;;;;;4917915;29;20491;-87
2021/09/25 19:47:50;;;;;;;6.00;4.80;;;;;;;;;;4913576;29;20463;-87
2021/09/25 19:50:18;;;;;;;5.90;5.13;;;;;;;;;;4917901;29;20516;-87
2021/09/25 19:52:50;;;;;;;10.80;5.53;;;;;;;;;;4914516;29;20488;-85
2021/09/25 19:55:18;;;;;;;6.83;6.03;;;;;;;;;;4920770;29;20479;-86
2021/09/25 19:57:48;;;;;;;7.87;6.37;;;;;;;;;;4914155;29;20562;-87
2021/09/25 20:00:18;;;;;;;13.43;6.40;;;;;;;;;;4920828;29;20493;-87
2021/09/25 20:02:46;;;;;;;11.10;5.60;;;;;;;;;;4921018;29;21217;-87
2021/09/25 20:05:15;;;;;;;5.90;5.30;;;;;;;;;;4920207;29;20485;-87
2021/09/25 20:07:44;;;;;;;6.50;4.63;;;;;;;;;;4925590;29;20521;-87
2021/09/25 20:10:13;;;;;;;7.17;5.07;;;;;;;;;;4924308;29;21483;-86
2021/09/25 20:12:42;;;;;;;8.80;5.50;;;;;;;;;;4924525;29;20474;-87
2021/09/25 20:15:13;;;;;;;9.07;6.20;;;;;;;;;;4925572;29;20561;-86
2021/09/25 20:17:41;;;;;;;10.13;6.90;;;;;;;;;;4925023;29;20544;-86
2021/09/25 20:20:12;;;;;;;11.93;6.60;;;;;;;;;;4923615;29;20510;-86
2021/09/25 20:22:41;;;;;;;10.47;6.57;;;;;;;;;;4921243;29;20494;-86
2021/09/25 20:25:10;;;;;;;8.47;6.83;;;;;;;;;;4919750;29;20893;-86
2021/09/25 20:27:38;;;;;;;7.43;6.30;;;;;;;;;;4920896;29;20909;-86
2021/09/25 20:30:08;;;;;;;8.27;7.13;;;;;;;;;;4923560;29;20486;-87
2021/09/25 20:32:38;;;;;;;8.70;7.20;;;;;;;;;;4925824;29;20536;-86
2021/09/25 20:35:08;;;;;;;9.33;7.57;;;;;;;;;;4921754;29;20460;-87
2021/09/25 20:37:37;;;;;;;8.27;6.83;;;;;;;;;;4922208;29;20483;-87
2021/09/25 20:40:07;;;;;;;8.73;7.80;;;;;;;;;;4919187;29;20531;-86